sensor_id;sensor_type;location;lat;lon;timestamp;P1;durP1;ratioP1;P2;durP2;ratioP2
20758;SDS011;10539;53.686;9.158;2023-02-21T00:02:21;14.50;;;3.10;;
20758;SDS011;10539;53.686;9.158;2023-02-21T00:05:06;16.87;;;3.47;;
20758;SDS011;10539;53.686;9.158;2023-02-21T00:07:50;16.37;;;3.63;;
20758;SDS011;10539;53.686;9.158;2023-02-21T00:10:35;21.07;;;3.67;;
20758;SDS011;10539;53.686;9.158;2023-02-21T00:13:19;17.17;;;3.03;;
20758;SDS011;10539;53.686;9.158;2023-02-21T00:16:04;16.97;;;2.70;;
20758;SDS011;10539;53.686;9.158;2023-02-21T00:18:49;17.57;;;3.60;;
20758;SDS011;10539;53.686;9.158;2023-02-21T00:21:33;25.93;;;4.20;;
20758;SDS011;10539;53.686;9.158;2023-02-21T00:24:17;13.33;;;3.83;;
20758;SDS011;10539;53.686;9.158;2023-02-21T00:27:03;16.33;;;3.40;;
20758;SDS011;10539;53.686;9.158;2023-02-21T00:29:48;13.57;;;2.73;;
20758;SDS011;10539;53.686;9.158;2023-02-21T00:32:33;19.33;;;4.00;;
20758;SDS011;10539;53.686;9.158;2023-02-21T00:35:18;15.77;;;3.03;;
20758;SDS011;10539;53.686;9.158;2023-02-21T00:38:03;17.43;;;3.30;;
20758;SDS011;10539;53.686;9.158;2023-02-21T00:40:47;20.70;;;3.40;;
20758;SDS011;10539;53.686;9.158;2023-02-21T00:43:33;16.83;;;4.17;;
20758;SDS011;10539;53.686;9.158;2023-02-21T00:46:19;21.70;;;3.83;;
20758;SDS011;10539;53.686;9.158;2023-02-21T00:49:04;22.43;;;3.97;;
20758;SDS011;10539;53.686;9.158;2023-02-21T00:51:49;19.10;;;3.83;;
20758;SDS011;10539;53.686;9.158;2023-02-21T00:54:33;22.77;;;4.53;;
20758;SDS011;10539;53.686;9.158;2023-02-21T00:57:18;35.73;;;5.50;;
20758;SDS011;10539;53.686;9.158;2023-02-21T01:00:04;25.47;;;5.47;;
20758;SDS011;10539;53.686;9.158;2023-02-21T01:02:50;28.73;;;4.90;;
20758;SDS011;10539;53.686;9.158;2023-02-21T01:05:34;24.70;;;5.00;;
20758;SDS011;10539;53.686;9.158;2023-02-21T01:08:19;25.63;;;5.47;;
20758;SDS011;10539;53.686;9.158;2023-02-21T01:11:03;32.40;;;5.27;;
20758;SDS011;10539;53.686;9.158;2023-02-21T01:13:48;29.47;;;4.67;;
20758;SDS011;10539;53.686;9.158;2023-02-21T01:16:32;34.47;;;4.97;;
20758;SDS011;10539;53.686;9.158;2023-02-21T01:19:16;23.97;;;4.80;;
20758;SDS011;10539;53.686;9.158;2023-02-21T01:22:02;30.17;;;4.67;;
20758;SDS011;10539;53.686;9.158;2023-02-21T01:24:47;30.73;;;5.20;;
20758;SDS011;10539;53.686;9.158;2023-02-21T01:27:32;31.83;;;5.40;;
20758;SDS011;10539;53.686;9.158;2023-02-21T01:30:17;37.90;;;5.03;;
20758;SDS011;10539;53.686;9.158;2023-02-21T01:33:01;27.00;;;5.03;;
20758;SDS011;10539;53.686;9.158;2023-02-21T01:35:45;33.20;;;5.07;;
20758;SDS011;10539;53.686;9.158;2023-02-21T01:38:33;30.50;;;5.80;;
20758;SDS011;10539;53.686;9.158;2023-02-21T01:41:18;44.23;;;5.53;;
20758;SDS011;10539;53.686;9.158;2023-02-21T01:44:04;31.97;;;5.97;;
20758;SDS011;10539;53.686;9.158;2023-02-21T01:46:50;25.03;;;5.30;;
20758;SDS011;10539;53.686;9.158;2023-02-21T01:49:35;33.93;;;4.87;;
20758;SDS011;10539;53.686;9.158;2023-02-21T01:52:23;26.93;;;5.53;;
20758;SDS011;10539;53.686;9.158;2023-02-21T01:55:08;24.40;;;5.13;;
20758;SDS011;10539;53.686;9.158;2023-02-21T01:57:54;33.37;;;5.30;;
20758;SDS011;10539;53.686;9.158;2023-02-21T02:00:39;25.00;;;4.80;;
20758;SDS011;10539;53.686;9.158;2023-02-21T02:03:24;26.90;;;4.40;;
20758;SDS011;10539;53.686;9.158;2023-02-21T02:06:09;25.80;;;4.10;;
20758;SDS011;10539;53.686;9.158;2023-02-21T02:08:56;24.37;;;4.00;;
20758;SDS011;10539;53.686;9.158;2023-02-21T02:11:54;25.93;;;4.40;;
20758;SDS011;10539;53.686;9.158;2023-02-21T02:17:35;29.23;;;4.80;;
20758;SDS011;10539;53.686;9.158;2023-02-21T02:35:21;31.93;;;5.80;;
20758;SDS011;10539;53.686;9.158;2023-02-21T02:38:11;25.90;;;4.67;;
20758;SDS011;10539;53.686;9.158;2023-02-21T02:40:57;29.73;;;5.57;;
20758;SDS011;10539;53.686;9.158;2023-02-21T02:43:29;18.87;;;3.63;;
20758;SDS011;10539;53.686;9.158;2023-02-21T02:49:02;28.33;;;4.47;;
20758;SDS011;10539;53.686;9.158;2023-02-21T02:51:33;25.33;;;4.33;;
20758;SDS011;10539;53.686;9.158;2023-02-21T02:53:59;17.47;;;3.63;;
20758;SDS011;10539;53.686;9.158;2023-02-21T02:56:25;22.57;;;4.00;;
20758;SDS011;10539;53.686;9.158;2023-02-21T02:59:11;15.70;;;4.23;;
20758;SDS011;10539;53.686;9.158;2023-02-21T03:05:02;13.83;;;2.73;;
20758;SDS011;10539;53.686;9.158;2023-02-21T03:10:44;15.37;;;3.77;;
20758;SDS011;10539;53.686;9.158;2023-02-21T03:13:52;10.43;;;2.83;;
20758;SDS011;10539;53.686;9.158;2023-02-21T03:18:49;16.70;;;4.03;;
20758;SDS011;10539;53.686;9.158;2023-02-21T03:21:18;23.30;;;3.97;;
20758;SDS011;10539;53.686;9.158;2023-02-21T03:23:49;24.33;;;3.90;;
20758;SDS011;10539;53.686;9.158;2023-02-21T03:26:18;18.97;;;3.87;;
20758;SDS011;10539;53.686;9.158;2023-02-21T03:28:44;27.63;;;4.10;;
20758;SDS011;10539;53.686;9.158;2023-02-21T03:31:12;16.50;;;3.73;;
20758;SDS011;10539;53.686;9.158;2023-02-21T03:33:41;20.20;;;3.77;;
20758;SDS011;10539;53.686;9.158;2023-02-21T03:36:08;13.33;;;3.10;;
20758;SDS011;10539;53.686;9.158;2023-02-21T03:38:35;12.90;;;3.10;;
20758;SDS011;10539;53.686;9.158;2023-02-21T03:41:00;16.53;;;3.40;;
20758;SDS011;10539;53.686;9.158;2023-02-21T03:43:26;13.40;;;3.30;;
20758;SDS011;10539;53.686;9.158;2023-02-21T03:45:52;20.67;;;3.70;;
20758;SDS011;10539;53.686;9.158;2023-02-21T03:48:18;19.87;;;3.30;;
20758;SDS011;10539;53.686;9.158;2023-02-21T03:50:44;17.60;;;3.50;;
20758;SDS011;10539;53.686;9.158;2023-02-21T03:53:10;12.03;;;3.47;;
20758;SDS011;10539;53.686;9.158;2023-02-21T03:55:35;23.77;;;4.13;;
20758;SDS011;10539;53.686;9.158;2023-02-21T03:58:01;13.50;;;3.30;;
20758;SDS011;10539;53.686;9.158;2023-02-21T04:00:27;22.87;;;3.87;;
20758;SDS011;10539;53.686;9.158;2023-02-21T04:02:53;14.10;;;3.80;;
20758;SDS011;10539;53.686;9.158;2023-02-21T04:05:20;17.87;;;3.67;;
20758;SDS011;10539;53.686;9.158;2023-02-21T04:07:46;16.57;;;2.87;;
20758;SDS011;10539;53.686;9.158;2023-02-21T04:10:12;16.43;;;3.00;;
20758;SDS011;10539;53.686;9.158;2023-02-21T04:12:38;12.67;;;2.47;;
20758;SDS011;10539;53.686;9.158;2023-02-21T04:15:04;15.17;;;3.73;;
20758;SDS011;10539;53.686;9.158;2023-02-21T04:17:30;15.43;;;2.93;;
20758;SDS011;10539;53.686;9.158;2023-02-21T04:19:56;15.87;;;2.73;;
20758;SDS011;10539;53.686;9.158;2023-02-21T04:22:22;22.70;;;3.27;;
20758;SDS011;10539;53.686;9.158;2023-02-21T04:24:48;11.77;;;2.97;;
20758;SDS011;10539;53.686;9.158;2023-02-21T04:27:14;22.63;;;3.10;;
20758;SDS011;10539;53.686;9.158;2023-02-21T04:29:40;19.03;;;2.67;;
20758;SDS011;10539;53.686;9.158;2023-02-21T04:32:07;20.50;;;2.90;;
20758;SDS011;10539;53.686;9.158;2023-02-21T04:34:33;27.67;;;3.53;;
20758;SDS011;10539;53.686;9.158;2023-02-21T04:36:59;21.07;;;3.70;;
20758;SDS011;10539;53.686;9.158;2023-02-21T04:39:25;20.83;;;3.50;;
20758;SDS011;10539;53.686;9.158;2023-02-21T04:41:51;20.97;;;2.93;;
20758;SDS011;10539;53.686;9.158;2023-02-21T04:44:16;25.63;;;4.40;;
20758;SDS011;10539;53.686;9.158;2023-02-21T04:46:42;25.33;;;4.47;;
20758;SDS011;10539;53.686;9.158;2023-02-21T04:49:08;26.77;;;4.90;;
20758;SDS011;10539;53.686;9.158;2023-02-21T04:51:36;23.50;;;4.53;;
20758;SDS011;10539;53.686;9.158;2023-02-21T04:54:02;33.70;;;5.07;;
20758;SDS011;10539;53.686;9.158;2023-02-21T04:56:28;37.27;;;4.63;;
20758;SDS011;10539;53.686;9.158;2023-02-21T04:58:54;36.17;;;5.20;;
20758;SDS011;10539;53.686;9.158;2023-02-21T05:01:20;32.23;;;4.20;;
20758;SDS011;10539;53.686;9.158;2023-02-21T05:03:47;39.67;;;5.87;;
20758;SDS011;10539;53.686;9.158;2023-02-21T05:06:17;33.70;;;5.93;;
20758;SDS011;10539;53.686;9.158;2023-02-21T05:08:44;38.30;;;5.23;;
20758;SDS011;10539;53.686;9.158;2023-02-21T05:11:09;33.87;;;4.20;;
20758;SDS011;10539;53.686;9.158;2023-02-21T05:13:35;32.90;;;4.43;;
20758;SDS011;10539;53.686;9.158;2023-02-21T05:16:01;32.67;;;5.07;;
20758;SDS011;10539;53.686;9.158;2023-02-21T05:18:26;29.03;;;3.93;;
20758;SDS011;10539;53.686;9.158;2023-02-21T05:20:53;26.00;;;3.90;;
20758;SDS011;10539;53.686;9.158;2023-02-21T05:23:19;24.47;;;3.60;;
20758;SDS011;10539;53.686;9.158;2023-02-21T05:26:01;30.83;;;4.47;;
20758;SDS011;10539;53.686;9.158;2023-02-21T05:28:29;23.23;;;3.70;;
20758;SDS011;10539;53.686;9.158;2023-02-21T05:30:55;29.87;;;3.47;;
20758;SDS011;10539;53.686;9.158;2023-02-21T05:33:21;29.60;;;4.17;;
20758;SDS011;10539;53.686;9.158;2023-02-21T05:35:48;26.63;;;3.70;;
20758;SDS011;10539;53.686;9.158;2023-02-21T05:38:15;31.30;;;4.57;;
20758;SDS011;10539;53.686;9.158;2023-02-21T05:40:41;32.03;;;3.90;;
20758;SDS011;10539;53.686;9.158;2023-02-21T05:43:07;33.57;;;4.30;;
20758;SDS011;10539;53.686;9.158;2023-02-21T05:45:33;29.80;;;5.03;;
20758;SDS011;10539;53.686;9.158;2023-02-21T05:47:59;22.70;;;5.40;;
20758;SDS011;10539;53.686;9.158;2023-02-21T05:50:27;28.40;;;5.13;;
20758;SDS011;10539;53.686;9.158;2023-02-21T05:52:54;31.23;;;5.40;;
20758;SDS011;10539;53.686;9.158;2023-02-21T05:55:23;31.80;;;4.83;;
20758;SDS011;10539;53.686;9.158;2023-02-21T05:57:49;30.07;;;7.03;;
20758;SDS011;10539;53.686;9.158;2023-02-21T06:00:19;29.53;;;5.47;;
20758;SDS011;10539;53.686;9.158;2023-02-21T06:02:50;33.33;;;6.03;;
20758;SDS011;10539;53.686;9.158;2023-02-21T06:05:17;38.23;;;7.00;;
20758;SDS011;10539;53.686;9.158;2023-02-21T06:07:43;39.43;;;6.73;;
20758;SDS011;10539;53.686;9.158;2023-02-21T06:10:10;30.30;;;6.30;;
20758;SDS011;10539;53.686;9.158;2023-02-21T06:12:36;36.57;;;5.97;;
20758;SDS011;10539;53.686;9.158;2023-02-21T06:15:02;34.33;;;6.53;;
20758;SDS011;10539;53.686;9.158;2023-02-21T06:17:38;42.50;;;6.97;;
20758;SDS011;10539;53.686;9.158;2023-02-21T06:20:04;33.73;;;6.57;;
20758;SDS011;10539;53.686;9.158;2023-02-21T06:22:31;45.27;;;6.20;;
20758;SDS011;10539;53.686;9.158;2023-02-21T06:24:56;43.73;;;7.50;;
20758;SDS011;10539;53.686;9.158;2023-02-21T06:27:22;39.20;;;6.40;;
20758;SDS011;10539;53.686;9.158;2023-02-21T06:29:48;34.90;;;7.67;;
20758;SDS011;10539;53.686;9.158;2023-02-21T06:32:14;36.27;;;6.63;;
20758;SDS011;10539;53.686;9.158;2023-02-21T06:34:39;35.73;;;7.50;;
20758;SDS011;10539;53.686;9.158;2023-02-21T06:37:08;40.90;;;7.33;;
20758;SDS011;10539;53.686;9.158;2023-02-21T06:39:34;33.00;;;6.77;;
20758;SDS011;10539;53.686;9.158;2023-02-21T06:41:59;45.83;;;7.63;;
20758;SDS011;10539;53.686;9.158;2023-02-21T06:44:25;35.97;;;7.80;;
20758;SDS011;10539;53.686;9.158;2023-02-21T06:46:51;38.47;;;7.47;;
20758;SDS011;10539;53.686;9.158;2023-02-21T06:49:19;35.73;;;6.90;;
20758;SDS011;10539;53.686;9.158;2023-02-21T06:51:45;37.60;;;6.93;;
20758;SDS011;10539;53.686;9.158;2023-02-21T06:54:11;29.90;;;6.70;;
20758;SDS011;10539;53.686;9.158;2023-02-21T06:56:37;39.73;;;7.23;;
20758;SDS011;10539;53.686;9.158;2023-02-21T06:59:03;38.57;;;6.23;;
20758;SDS011;10539;53.686;9.158;2023-02-21T07:01:29;27.43;;;5.70;;
20758;SDS011;10539;53.686;9.158;2023-02-21T07:03:56;35.07;;;6.33;;
20758;SDS011;10539;53.686;9.158;2023-02-21T07:06:22;36.60;;;5.67;;
20758;SDS011;10539;53.686;9.158;2023-02-21T07:08:49;34.03;;;5.33;;
20758;SDS011;10539;53.686;9.158;2023-02-21T07:11:15;39.00;;;7.10;;
20758;SDS011;10539;53.686;9.158;2023-02-21T07:13:45;30.33;;;5.57;;
20758;SDS011;10539;53.686;9.158;2023-02-21T07:16:13;26.63;;;5.50;;
20758;SDS011;10539;53.686;9.158;2023-02-21T07:18:42;28.27;;;6.40;;
20758;SDS011;10539;53.686;9.158;2023-02-21T07:21:08;29.10;;;5.57;;
20758;SDS011;10539;53.686;9.158;2023-02-21T07:23:34;29.63;;;6.60;;
20758;SDS011;10539;53.686;9.158;2023-02-21T07:26:01;28.70;;;5.73;;
20758;SDS011;10539;53.686;9.158;2023-02-21T07:28:27;31.67;;;6.07;;
20758;SDS011;10539;53.686;9.158;2023-02-21T07:30:52;32.47;;;6.10;;
20758;SDS011;10539;53.686;9.158;2023-02-21T07:33:18;32.83;;;5.43;;
20758;SDS011;10539;53.686;9.158;2023-02-21T07:35:44;35.40;;;5.80;;
20758;SDS011;10539;53.686;9.158;2023-02-21T07:38:18;20.53;;;5.13;;
20758;SDS011;10539;53.686;9.158;2023-02-21T07:40:58;30.63;;;5.17;;
20758;SDS011;10539;53.686;9.158;2023-02-21T07:43:26;24.10;;;5.13;;
20758;SDS011;10539;53.686;9.158;2023-02-21T07:45:54;29.13;;;5.50;;
20758;SDS011;10539;53.686;9.158;2023-02-21T07:48:20;26.23;;;5.40;;
20758;SDS011;10539;53.686;9.158;2023-02-21T07:50:46;24.03;;;4.90;;
20758;SDS011;10539;53.686;9.158;2023-02-21T07:53:13;19.70;;;4.57;;
20758;SDS011;10539;53.686;9.158;2023-02-21T07:55:39;21.50;;;4.97;;
20758;SDS011;10539;53.686;9.158;2023-02-21T07:58:06;33.90;;;5.27;;
20758;SDS011;10539;53.686;9.158;2023-02-21T08:00:32;25.77;;;5.23;;
20758;SDS011;10539;53.686;9.158;2023-02-21T08:02:58;32.93;;;5.60;;
20758;SDS011;10539;53.686;9.158;2023-02-21T08:05:24;22.47;;;5.10;;
20758;SDS011;10539;53.686;9.158;2023-02-21T08:07:50;25.73;;;4.87;;
20758;SDS011;10539;53.686;9.158;2023-02-21T08:10:23;23.70;;;4.33;;
20758;SDS011;10539;53.686;9.158;2023-02-21T08:12:51;29.30;;;5.00;;
20758;SDS011;10539;53.686;9.158;2023-02-21T08:15:17;28.37;;;4.97;;
20758;SDS011;10539;53.686;9.158;2023-02-21T08:17:43;30.73;;;4.80;;
20758;SDS011;10539;53.686;9.158;2023-02-21T08:20:11;22.47;;;4.00;;
20758;SDS011;10539;53.686;9.158;2023-02-21T08:22:37;16.47;;;4.03;;
20758;SDS011;10539;53.686;9.158;2023-02-21T08:25:03;26.77;;;4.77;;
20758;SDS011;10539;53.686;9.158;2023-02-21T08:27:29;27.13;;;4.20;;
20758;SDS011;10539;53.686;9.158;2023-02-21T08:29:55;29.77;;;5.03;;
20758;SDS011;10539;53.686;9.158;2023-02-21T08:32:21;26.90;;;4.73;;
20758;SDS011;10539;53.686;9.158;2023-02-21T08:34:47;28.03;;;4.17;;
20758;SDS011;10539;53.686;9.158;2023-02-21T08:37:14;38.43;;;4.97;;
20758;SDS011;10539;53.686;9.158;2023-02-21T08:39:48;23.67;;;4.47;;
20758;SDS011;10539;53.686;9.158;2023-02-21T08:42:18;29.93;;;4.23;;
20758;SDS011;10539;53.686;9.158;2023-02-21T08:44:44;27.87;;;4.73;;
20758;SDS011;10539;53.686;9.158;2023-02-21T08:47:14;24.57;;;4.00;;
20758;SDS011;10539;53.686;9.158;2023-02-21T08:49:47;30.20;;;4.20;;
20758;SDS011;10539;53.686;9.158;2023-02-21T08:52:14;24.20;;;4.00;;
20758;SDS011;10539;53.686;9.158;2023-02-21T08:54:41;24.17;;;3.67;;
20758;SDS011;10539;53.686;9.158;2023-02-21T08:57:06;21.80;;;3.67;;
20758;SDS011;10539;53.686;9.158;2023-02-21T08:59:32;37.20;;;4.23;;
20758;SDS011;10539;53.686;9.158;2023-02-21T09:01:59;23.37;;;4.17;;
20758;SDS011;10539;53.686;9.158;2023-02-21T09:04:25;12.67;;;3.23;;
20758;SDS011;10539;53.686;9.158;2023-02-21T09:06:52;24.47;;;3.80;;
20758;SDS011;10539;53.686;9.158;2023-02-21T09:09:18;22.33;;;4.17;;
20758;SDS011;10539;53.686;9.158;2023-02-21T09:11:46;17.40;;;3.53;;
20758;SDS011;10539;53.686;9.158;2023-02-21T09:14:16;12.83;;;2.93;;
20758;SDS011;10539;53.686;9.158;2023-02-21T09:16:42;17.33;;;3.43;;
20758;SDS011;10539;53.686;9.158;2023-02-21T09:19:08;25.37;;;3.57;;
20758;SDS011;10539;53.686;9.158;2023-02-21T09:21:34;15.97;;;3.53;;
20758;SDS011;10539;53.686;9.158;2023-02-21T09:24:00;16.93;;;3.97;;
20758;SDS011;10539;53.686;9.158;2023-02-21T09:26:27;16.53;;;3.77;;
20758;SDS011;10539;53.686;9.158;2023-02-21T09:28:56;16.27;;;3.20;;
20758;SDS011;10539;53.686;9.158;2023-02-21T09:31:22;19.07;;;3.30;;
20758;SDS011;10539;53.686;9.158;2023-02-21T09:33:48;14.20;;;3.30;;
20758;SDS011;10539;53.686;9.158;2023-02-21T09:36:14;13.50;;;3.20;;
20758;SDS011;10539;53.686;9.158;2023-02-21T09:38:40;18.03;;;2.90;;
20758;SDS011;10539;53.686;9.158;2023-02-21T09:41:07;19.53;;;3.33;;
20758;SDS011;10539;53.686;9.158;2023-02-21T09:43:43;15.00;;;2.77;;
20758;SDS011;10539;53.686;9.158;2023-02-21T09:46:54;19.40;;;3.13;;
20758;SDS011;10539;53.686;9.158;2023-02-21T09:49:04;9.57;;;2.60;;
20758;SDS011;10539;53.686;9.158;2023-02-21T09:51:36;17.53;;;2.63;;
20758;SDS011;10539;53.686;9.158;2023-02-21T09:54:05;20.07;;;2.80;;
20758;SDS011;10539;53.686;9.158;2023-02-21T09:56:43;13.33;;;3.00;;
20758;SDS011;10539;53.686;9.158;2023-02-21T09:59:10;11.53;;;2.70;;
20758;SDS011;10539;53.686;9.158;2023-02-21T10:01:52;12.43;;;2.33;;
20758;SDS011;10539;53.686;9.158;2023-02-21T10:04:38;8.40;;;2.67;;
20758;SDS011;10539;53.686;9.158;2023-02-21T10:10:18;15.93;;;3.00;;
20758;SDS011;10539;53.686;9.158;2023-02-21T10:12:53;11.70;;;2.63;;
20758;SDS011;10539;53.686;9.158;2023-02-21T10:16:00;12.20;;;2.70;;
20758;SDS011;10539;53.686;9.158;2023-02-21T10:21:55;9.50;;;2.87;;
20758;SDS011;10539;53.686;9.158;2023-02-21T10:24:14;11.17;;;2.80;;
20758;SDS011;10539;53.686;9.158;2023-02-21T10:26:43;7.47;;;3.47;;
20758;SDS011;10539;53.686;9.158;2023-02-21T10:29:24;12.13;;;3.27;;
20758;SDS011;10539;53.686;9.158;2023-02-21T10:31:58;10.10;;;4.63;;
20758;SDS011;10539;53.686;9.158;2023-02-21T10:34:28;8.93;;;4.13;;
20758;SDS011;10539;53.686;9.158;2023-02-21T10:36:56;10.93;;;4.07;;
20758;SDS011;10539;53.686;9.158;2023-02-21T10:40:31;15.33;;;4.60;;
20758;SDS011;10539;53.686;9.158;2023-02-21T10:42:44;13.07;;;4.83;;
20758;SDS011;10539;53.686;9.158;2023-02-21T10:45:18;13.57;;;4.30;;
20758;SDS011;10539;53.686;9.158;2023-02-21T10:47:51;12.33;;;4.40;;
20758;SDS011;10539;53.686;9.158;2023-02-21T10:53:36;11.30;;;4.73;;
20758;SDS011;10539;53.686;9.158;2023-02-21T10:58:48;8.17;;;3.20;;
20758;SDS011;10539;53.686;9.158;2023-02-21T11:03:56;7.97;;;3.27;;
20758;SDS011;10539;53.686;9.158;2023-02-21T11:06:37;11.60;;;3.70;;
20758;SDS011;10539;53.686;9.158;2023-02-21T11:09:22;6.77;;;3.60;;
20758;SDS011;10539;53.686;9.158;2023-02-21T11:12:33;8.43;;;3.33;;
20758;SDS011;10539;53.686;9.158;2023-02-21T11:14:40;8.97;;;3.57;;
20758;SDS011;10539;53.686;9.158;2023-02-21T11:19:52;13.40;;;3.50;;
20758;SDS011;10539;53.686;9.158;2023-02-21T11:22:23;10.93;;;3.67;;
20758;SDS011;10539;53.686;9.158;2023-02-21T11:27:40;9.87;;;3.40;;
20758;SDS011;10539;53.686;9.158;2023-02-21T11:30:10;11.87;;;3.43;;
20758;SDS011;10539;53.686;9.158;2023-02-21T11:32:40;9.87;;;3.30;;
20758;SDS011;10539;53.686;9.158;2023-02-21T11:37:54;9.43;;;3.30;;
20758;SDS011;10539;53.686;9.158;2023-02-21T11:43:22;13.73;;;3.77;;
20758;SDS011;10539;53.686;9.158;2023-02-21T11:48:51;8.90;;;3.50;;
20758;SDS011;10539;53.686;9.158;2023-02-21T11:51:26;9.07;;;3.07;;
20758;SDS011;10539;53.686;9.158;2023-02-21T11:54:08;11.50;;;3.30;;
20758;SDS011;10539;53.686;9.158;2023-02-21T11:59:22;11.87;;;2.97;;
20758;SDS011;10539;53.686;9.158;2023-02-21T12:10:31;7.43;;;2.90;;
20758;SDS011;10539;53.686;9.158;2023-02-21T12:13:26;8.33;;;3.03;;
20758;SDS011;10539;53.686;9.158;2023-02-21T12:24:05;9.97;;;2.87;;
20758;SDS011;10539;53.686;9.158;2023-02-21T12:26:47;8.57;;;3.13;;
20758;SDS011;10539;53.686;9.158;2023-02-21T12:46:26;5.57;;;2.17;;
20758;SDS011;10539;53.686;9.158;2023-02-21T12:49:15;5.40;;;1.93;;
20758;SDS011;10539;53.686;9.158;2023-02-21T12:51:58;2.60;;;1.50;;
20758;SDS011;10539;53.686;9.158;2023-02-21T12:54:46;5.17;;;1.37;;
20758;SDS011;10539;53.686;9.158;2023-02-21T12:58:08;4.40;;;1.63;;
20758;SDS011;10539;53.686;9.158;2023-02-21T13:03:00;4.23;;;1.80;;
20758;SDS011;10539;53.686;9.158;2023-02-21T13:05:51;4.77;;;1.73;;
20758;SDS011;10539;53.686;9.158;2023-02-21T13:08:25;6.23;;;1.70;;
20758;SDS011;10539;53.686;9.158;2023-02-21T13:11:00;6.37;;;1.83;;
20758;SDS011;10539;53.686;9.158;2023-02-21T13:13:37;4.77;;;1.87;;
20758;SDS011;10539;53.686;9.158;2023-02-21T13:16:07;5.50;;;1.70;;
20758;SDS011;10539;53.686;9.158;2023-02-21T13:18:41;3.43;;;1.50;;
20758;SDS011;10539;53.686;9.158;2023-02-21T13:24:13;5.03;;;1.60;;
20758;SDS011;10539;53.686;9.158;2023-02-21T13:29:36;6.20;;;2.43;;
20758;SDS011;10539;53.686;9.158;2023-02-21T13:32:07;6.83;;;2.60;;
20758;SDS011;10539;53.686;9.158;2023-02-21T13:34:48;5.83;;;2.50;;
20758;SDS011;10539;53.686;9.158;2023-02-21T13:37:24;12.27;;;3.60;;
20758;SDS011;10539;53.686;9.158;2023-02-21T13:39:53;10.30;;;3.60;;
20758;SDS011;10539;53.686;9.158;2023-02-21T13:42:26;7.97;;;3.37;;
20758;SDS011;10539;53.686;9.158;2023-02-21T13:45:02;9.40;;;3.53;;
20758;SDS011;10539;53.686;9.158;2023-02-21T13:56:37;9.30;;;3.50;;
20758;SDS011;10539;53.686;9.158;2023-02-21T13:59:28;5.93;;;3.20;;
20758;SDS011;10539;53.686;9.158;2023-02-21T14:05:00;10.70;;;3.80;;
20758;SDS011;10539;53.686;9.158;2023-02-21T14:13:04;8.37;;;3.60;;
20758;SDS011;10539;53.686;9.158;2023-02-21T14:15:43;11.37;;;3.57;;
20758;SDS011;10539;53.686;9.158;2023-02-21T14:18:13;10.00;;;3.60;;
20758;SDS011;10539;53.686;9.158;2023-02-21T14:20:46;14.13;;;4.40;;
20758;SDS011;10539;53.686;9.158;2023-02-21T14:23:15;8.47;;;3.57;;
20758;SDS011;10539;53.686;9.158;2023-02-21T14:25:52;7.97;;;3.50;;
20758;SDS011;10539;53.686;9.158;2023-02-21T14:34:23;11.00;;;3.80;;
20758;SDS011;10539;53.686;9.158;2023-02-21T14:39:54;10.83;;;4.10;;
20758;SDS011;10539;53.686;9.158;2023-02-21T14:50:41;11.03;;;4.50;;
20758;SDS011;10539;53.686;9.158;2023-02-21T15:08:38;22.90;;;6.17;;
20758;SDS011;10539;53.686;9.158;2023-02-21T15:10:49;14.93;;;5.03;;
20758;SDS011;10539;53.686;9.158;2023-02-21T15:13:39;21.00;;;5.57;;
20758;SDS011;10539;53.686;9.158;2023-02-21T15:16:06;16.30;;;5.00;;
20758;SDS011;10539;53.686;9.158;2023-02-21T15:18:34;17.00;;;4.80;;
20758;SDS011;10539;53.686;9.158;2023-02-21T15:23:37;22.07;;;5.63;;
20758;SDS011;10539;53.686;9.158;2023-02-21T15:29:10;21.47;;;5.70;;
20758;SDS011;10539;53.686;9.158;2023-02-21T15:31:48;15.37;;;5.17;;
20758;SDS011;10539;53.686;9.158;2023-02-21T15:34:21;23.50;;;5.73;;
20758;SDS011;10539;53.686;9.158;2023-02-21T15:37:03;21.90;;;5.80;;
20758;SDS011;10539;53.686;9.158;2023-02-21T15:39:35;22.03;;;6.17;;
20758;SDS011;10539;53.686;9.158;2023-02-21T15:42:06;24.47;;;5.90;;
20758;SDS011;10539;53.686;9.158;2023-02-21T15:44:39;14.63;;;5.30;;
20758;SDS011;10539;53.686;9.158;2023-02-21T15:47:14;15.03;;;4.83;;
20758;SDS011;10539;53.686;9.158;2023-02-21T15:49:45;20.97;;;5.83;;
20758;SDS011;10539;53.686;9.158;2023-02-21T15:52:37;20.77;;;5.10;;
20758;SDS011;10539;53.686;9.158;2023-02-21T15:57:57;21.93;;;6.70;;
20758;SDS011;10539;53.686;9.158;2023-02-21T16:14:46;26.33;;;8.17;;
20758;SDS011;10539;53.686;9.158;2023-02-21T16:19:58;29.73;;;8.30;;
20758;SDS011;10539;53.686;9.158;2023-02-21T16:22:35;28.53;;;7.60;;
20758;SDS011;10539;53.686;9.158;2023-02-21T16:25:06;32.20;;;8.57;;
20758;SDS011;10539;53.686;9.158;2023-02-21T16:27:38;33.87;;;8.03;;
20758;SDS011;10539;53.686;9.158;2023-02-21T16:30:15;34.77;;;8.67;;
20758;SDS011;10539;53.686;9.158;2023-02-21T16:32:47;31.20;;;8.63;;
20758;SDS011;10539;53.686;9.158;2023-02-21T16:35:19;34.03;;;8.90;;
20758;SDS011;10539;53.686;9.158;2023-02-21T16:37:47;26.33;;;8.00;;
20758;SDS011;10539;53.686;9.158;2023-02-21T16:40:19;41.50;;;9.97;;
20758;SDS011;10539;53.686;9.158;2023-02-21T16:42:50;39.70;;;9.70;;
20758;SDS011;10539;53.686;9.158;2023-02-21T16:45:16;38.90;;;10.93;;
20758;SDS011;10539;53.686;9.158;2023-02-21T16:47:43;45.83;;;10.27;;
20758;SDS011;10539;53.686;9.158;2023-02-21T16:50:25;44.70;;;11.30;;
20758;SDS011;10539;53.686;9.158;2023-02-21T16:53:02;53.27;;;12.00;;
20758;SDS011;10539;53.686;9.158;2023-02-21T16:55:28;40.10;;;11.33;;
20758;SDS011;10539;53.686;9.158;2023-02-21T16:57:56;40.13;;;10.60;;
20758;SDS011;10539;53.686;9.158;2023-02-21T17:00:24;48.90;;;11.03;;
20758;SDS011;10539;53.686;9.158;2023-02-21T17:02:50;44.13;;;11.80;;
20758;SDS011;10539;53.686;9.158;2023-02-21T17:05:17;49.10;;;11.77;;
20758;SDS011;10539;53.686;9.158;2023-02-21T17:07:49;45.77;;;11.57;;
20758;SDS011;10539;53.686;9.158;2023-02-21T17:10:17;47.87;;;11.73;;
20758;SDS011;10539;53.686;9.158;2023-02-21T17:12:43;42.77;;;11.07;;
20758;SDS011;10539;53.686;9.158;2023-02-21T17:15:10;53.87;;;11.00;;
20758;SDS011;10539;53.686;9.158;2023-02-21T17:17:36;50.77;;;11.13;;
20758;SDS011;10539;53.686;9.158;2023-02-21T17:20:03;48.67;;;10.83;;
20758;SDS011;10539;53.686;9.158;2023-02-21T17:22:30;51.30;;;11.17;;
20758;SDS011;10539;53.686;9.158;2023-02-21T17:24:55;49.13;;;11.63;;
20758;SDS011;10539;53.686;9.158;2023-02-21T17:27:21;44.10;;;11.13;;
20758;SDS011;10539;53.686;9.158;2023-02-21T17:29:47;54.03;;;10.93;;
20758;SDS011;10539;53.686;9.158;2023-02-21T17:32:13;47.10;;;11.17;;
20758;SDS011;10539;53.686;9.158;2023-02-21T17:34:40;44.57;;;10.40;;
20758;SDS011;10539;53.686;9.158;2023-02-21T17:37:07;52.40;;;10.67;;
20758;SDS011;10539;53.686;9.158;2023-02-21T17:39:34;39.03;;;10.33;;
20758;SDS011;10539;53.686;9.158;2023-02-21T17:42:00;42.87;;;10.60;;
20758;SDS011;10539;53.686;9.158;2023-02-21T17:44:26;36.60;;;10.37;;
20758;SDS011;10539;53.686;9.158;2023-02-21T17:46:53;40.50;;;11.13;;
20758;SDS011;10539;53.686;9.158;2023-02-21T17:49:21;42.40;;;10.40;;
20758;SDS011;10539;53.686;9.158;2023-02-21T17:51:49;41.57;;;11.67;;
20758;SDS011;10539;53.686;9.158;2023-02-21T17:54:16;47.30;;;11.07;;
20758;SDS011;10539;53.686;9.158;2023-02-21T17:56:43;40.40;;;11.30;;
20758;SDS011;10539;53.686;9.158;2023-02-21T17:59:10;46.93;;;11.37;;
20758;SDS011;10539;53.686;9.158;2023-02-21T18:01:36;40.13;;;11.50;;
20758;SDS011;10539;53.686;9.158;2023-02-21T18:04:02;42.13;;;10.43;;
20758;SDS011;10539;53.686;9.158;2023-02-21T18:06:29;38.93;;;9.93;;